Time;durP1;ratioP1;P1;durP2;ratioP2;P2;SDS_P1;SDS_P2;PMS_P1;PMS_P2;Temp;Humidity;BMP_temperature;BMP_pressure;BME280_temperature;BME280_humidity;BME280_pressure;Samples;Min_cycle;Max_cycle;Signal;HPM_P1;HPM_P2
2022/06/11 00:01:48;;;;;;;1.70;1.40;;;19.60;66.80;;;;;;5126268;27;20574;-47
2022/06/11 00:04:32;;;;;;;1.40;1.30;;;19.60;66.90;;;;;;5063440;27;20550;-48
2022/06/11 00:07:16;;;;;;;1.30;1.20;;;19.60;66.80;;;;;;5128423;27;20545;-49
2022/06/11 00:09:56;;;;;;;3.37;1.77;;;19.60;66.90;;;;;;5122716;27;20586;-51
2022/06/11 00:12:37;;;;;;;1.37;1.27;;;19.60;66.80;;;;;;5083333;28;20532;-46
2022/06/11 00:15:18;;;;;;;1.67;1.20;;;19.60;66.80;;;;;;5084708;27;20528;-48
2022/06/11 00:17:59;;;;;;;1.20;1.10;;;19.60;66.80;;;;;;5118234;27;20599;-49
2022/06/11 00:20:40;;;;;;;1.10;1.00;;;19.60;66.70;;;;;;5128230;27;20537;-48
2022/06/11 00:23:22;;;;;;;2.70;1.57;;;19.60;66.80;;;;;;5102620;27;20607;-45
2022/06/11 00:26:05;;;;;;;1.60;1.50;;;19.60;66.80;;;;;;5084837;28;21064;-48
2022/06/11 00:28:49;;;;;;;1.30;1.20;;;19.60;66.70;;;;;;5078731;27;20567;-46
2022/06/11 00:31:29;;;;;;;1.77;1.20;;;19.60;66.80;;;;;;5084973;28;20535;-49
2022/06/11 00:34:11;;;;;;;2.10;1.27;;;19.60;66.90;;;;;;5081462;27;20956;-46
2022/06/11 00:36:52;;;;;;;3.13;1.47;;;19.60;66.80;;;;;;5088069;27;20512;-48
2022/06/11 00:39:36;;;;;;;1.87;1.50;;;19.60;66.80;;;;;;5061216;27;20553;-47
2022/06/11 00:42:18;;;;;;;1.48;1.38;;;19.60;66.80;;;;;;5139625;27;1200844;-49
2022/06/11 00:45:16;;;;;;;1.33;1.23;;;19.60;66.80;;;;;;5072734;27;20547;-49
2022/06/11 00:48:02;;;;;;;1.40;1.30;;;19.60;66.80;;;;;;5119444;27;20534;-47
2022/06/11 00:50:48;;;;;;;1.20;1.10;;;19.60;66.80;;;;;;5108717;27;20537;-49
2022/06/11 00:53:35;;;;;;;3.07;1.50;;;19.60;66.80;;;;;;5083911;27;20596;-49
2022/06/11 00:56:21;;;;;;;1.77;1.20;;;19.60;66.70;;;;;;5097355;27;20526;-50
2022/06/11 00:59:05;;;;;;;1.20;1.10;;;19.60;66.70;;;;;;5066397;28;20570;-49
2022/06/11 01:01:47;;;;;;;1.67;1.57;;;19.60;66.70;;;;;;5087086;27;20582;-49
2022/06/11 01:04:44;;;;;;;3.07;1.40;;;19.60;66.70;;;;;;5089853;27;20569;-46
2022/06/11 01:08:02;;;;;;;1.70;1.60;;;19.60;67.10;;;;;;5126572;27;20521;-47
2022/06/11 01:11:15;;;;;;;1.23;1.13;;;19.60;66.80;;;;;;5084464;28;20532;-47
2022/06/11 01:14:07;;;;;;;1.47;1.20;;;19.60;66.60;;;;;;5070056;27;20716;-47
2022/06/11 01:16:56;;;;;;;1.20;1.10;;;19.60;66.60;;;;;;5093837;27;20657;-48
2022/06/11 01:19:55;;;;;;;3.17;1.20;;;19.60;66.70;;;;;;5067560;27;20599;-47
2022/06/11 01:23:09;;;;;;;1.17;1.10;;;19.60;66.60;;;;;;5083980;28;20527;-49
2022/06/11 01:25:59;;;;;;;1.47;1.37;;;19.60;66.70;;;;;;5127866;27;20552;-47
2022/06/11 01:28:56;;;;;;;1.20;1.10;;;19.60;66.70;;;;;;5094475;27;20949;-48
2022/06/11 01:31:42;;;;;;;1.30;1.20;;;19.60;66.70;;;;;;5106625;27;20600;-48
2022/06/11 01:34:29;;;;;;;1.10;1.00;;;19.60;66.70;;;;;;5064687;27;20618;-49
2022/06/11 01:37:21;;;;;;;1.20;1.10;;;19.60;66.70;;;;;;5120181;27;20522;-46
2022/06/11 01:40:06;;;;;;;1.57;1.47;;;19.60;66.70;;;;;;5087272;27;20593;-48
2022/06/11 01:42:52;;;;;;;1.60;1.50;;;19.60;66.60;;;;;;5084539;27;20533;-47
2022/06/11 01:45:45;;;;;;;0.97;0.93;;;19.60;66.60;;;;;;5084820;27;20619;-49
2022/06/11 01:48:27;;;;;;;1.30;1.20;;;19.60;66.50;;;;;;5069883;27;20545;-49
2022/06/11 01:51:20;;;;;;;1.83;1.40;;;19.60;66.60;;;;;;5117237;27;20919;-48
2022/06/11 01:54:16;;;;;;;1.53;1.10;;;19.60;66.60;;;;;;5067390;27;20553;-49
2022/06/11 01:57:27;;;;;;;1.67;1.57;;;19.60;66.80;;;;;;5039940;28;20928;-48
2022/06/11 02:00:16;;;;;;;1.87;1.60;;;19.60;66.70;;;;;;5071056;27;20627;-48
2022/06/11 02:03:30;;;;;;;1.43;1.33;;;19.60;66.70;;;;;;5072530;28;20539;-48
2022/06/11 02:06:21;;;;;;;1.20;1.10;;;19.60;66.70;;;;;;5107877;27;20526;-48
2022/06/11 02:09:17;;;;;;;1.30;1.13;;;19.60;66.70;;;;;;5135315;22;20624;-72
2022/06/11 02:12:05;;;;;;;1.47;1.20;;;19.60;66.60;;;;;;5113130;27;20526;-48
2022/06/11 02:14:53;;;;;;;1.57;1.40;;;19.60;66.60;;;;;;5060837;27;20558;-48
2022/06/11 02:17:38;;;;;;;2.70;1.13;;;19.60;66.50;;;;;;5083312;28;20519;-48
2022/06/11 02:20:22;;;;;;;1.30;1.20;;;19.60;66.60;;;;;;5128716;27;20529;-47
2022/06/11 02:23:07;;;;;;;1.37;1.27;;;19.60;66.70;;;;;;5057240;28;20618;-47
2022/06/11 02:25:52;;;;;;;1.27;1.10;;;19.60;66.70;;;;;;5081164;28;20540;-48
2022/06/11 02:28:39;;;;;;;1.27;1.17;;;19.60;66.70;;;;;;5088827;27;20554;-48
2022/06/11 02:31:25;;;;;;;1.23;1.13;;;19.60;66.80;;;;;;5085381;28;20527;-48
2022/06/11 02:34:08;;;;;;;1.60;1.30;;;19.60;66.80;;;;;;5058616;27;20553;-47
2022/06/11 02:36:59;;;;;;;1.43;1.30;;;19.60;66.70;;;;;;5091012;27;20523;-48
2022/06/11 02:39:42;;;;;;;1.33;1.20;;;19.60;67.90;;;;;;5066251;27;21023;-48
2022/06/11 02:42:25;;;;;;;1.23;1.13;;;19.60;66.70;;;;;;5087829;27;21041;-47
2022/06/11 02:45:07;;;;;;;2.03;0.97;;;19.60;66.70;;;;;;5065174;27;20677;-48
2022/06/11 02:47:50;;;;;;;14.30;2.17;;;19.60;66.70;;;;;;5082884;27;20931;-50
2022/06/11 02:50:33;;;;;;;1.20;1.00;;;19.60;66.60;;;;;;5128454;27;20513;-47
2022/06/11 02:53:19;;;;;;;1.60;1.37;;;19.60;66.50;;;;;;5069272;27;20585;-49
2022/06/11 02:56:00;;;;;;;0.90;0.90;;;19.60;66.50;;;;;;5087412;28;20573;-48
2022/06/11 02:58:41;;;;;;;1.13;1.07;;;19.60;66.50;;;;;;5065198;28;20539;-48
2022/06/11 03:01:28;;;;;;;1.43;1.10;;;19.60;66.40;;;;;;5084878;27;20527;-47
2022/06/11 03:04:09;;;;;;;1.27;1.17;;;19.60;66.50;;;;;;5058186;27;21218;-48
2022/06/11 03:06:51;;;;;;;1.17;1.07;;;19.60;66.40;;;;;;5072590;27;20529;-47
2022/06/11 03:09:34;;;;;;;0.87;0.87;;;19.60;66.40;;;;;;5059136;27;20896;-48
2022/06/11 03:12:16;;;;;;;1.80;0.93;;;19.60;66.50;;;;;;5094915;27;20532;-48
2022/06/11 03:14:56;;;;;;;1.70;1.60;;;19.60;66.40;;;;;;5105557;27;20554;-48
2022/06/11 03:17:38;;;;;;;1.20;1.10;;;19.60;66.50;;;;;;5081220;28;20527;-48
2022/06/11 03:20:20;;;;;;;1.47;1.37;;;19.60;66.60;;;;;;5087731;27;20597;-48
2022/06/11 03:23:02;;;;;;;1.23;1.10;;;19.60;66.50;;;;;;5076426;28;20624;-48
2022/06/11 03:25:42;;;;;;;1.43;1.33;;;19.60;66.50;;;;;;5087676;28;20587;-48
2022/06/11 03:28:26;;;;;;;1.40;1.30;;;19.60;66.50;;;;;;5098557;27;21165;-49
2022/06/11 03:31:08;;;;;;;1.10;1.00;;;19.60;66.70;;;;;;5126797;27;20532;-48
2022/06/11 03:33:49;;;;;;;1.30;1.20;;;19.60;66.70;;;;;;5066233;27;20908;-47
2022/06/11 03:36:31;;;;;;;1.30;1.20;;;19.60;66.60;;;;;;5086838;28;20601;-47
2022/06/11 03:39:15;;;;;;;1.23;1.13;;;19.60;66.70;;;;;;5108398;27;20597;-48
2022/06/11 03:41:57;;;;;;;1.30;1.20;;;19.60;66.70;;;;;;5088138;27;20530;-48
2022/06/11 03:44:38;;;;;;;1.10;1.00;;;19.60;66.80;;;;;;5085212;27;20911;-48
2022/06/11 03:47:20;;;;;;;1.17;1.00;;;19.60;66.80;;;;;;5087315;27;20847;-48
2022/06/11 03:50:01;;;;;;;1.83;1.10;;;19.60;66.80;;;;;;5087201;27;20519;-47
2022/06/11 03:52:42;;;;;;;1.67;1.20;;;19.60;66.80;;;;;;5078495;27;20533;-47
2022/06/11 03:55:24;;;;;;;1.37;1.17;;;19.60;66.90;;;;;;5114808;27;20530;-49
2022/06/11 03:58:06;;;;;;;1.03;1.00;;;19.60;66.90;;;;;;5058867;27;21065;-48
2022/06/11 04:03:49;;;;;;;1.33;1.10;;;19.60;66.90;;;;;;5068584;28;20554;-47
2022/06/11 04:06:33;;;;;;;1.10;1.00;;;19.60;66.90;;;;;;5093597;27;20577;-48
2022/06/11 04:09:18;;;;;;;1.27;1.17;;;19.60;66.90;;;;;;5072236;27;20609;-47
2022/06/11 04:12:01;;;;;;;1.40;1.30;;;19.60;66.80;;;;;;5087737;28;20545;-48
2022/06/11 04:14:41;;;;;;;1.67;1.10;;;19.60;66.80;;;;;;5104423;27;20547;-48
2022/06/11 04:17:26;;;;;;;0.97;0.97;;;19.60;66.80;;;;;;5128475;27;20522;-48
2022/06/11 04:20:08;;;;;;;1.87;1.17;;;19.60;66.70;;;;;;5095928;27;20543;-48
2022/06/11 04:22:49;;;;;;;1.10;1.00;;;19.60;66.80;;;;;;5115923;27;20597;-47
2022/06/11 04:25:30;;;;;;;1.63;0.80;;;19.60;66.70;;;;;;5088196;27;20534;-47
2022/06/11 04:28:11;;;;;;;1.27;1.10;;;19.60;66.70;;;;;;5067482;28;20550;-48
2022/06/11 04:30:52;;;;;;;1.20;1.10;;;19.60;66.80;;;;;;5072440;27;20544;-48
2022/06/11 04:33:35;;;;;;;1.10;1.00;;;19.60;68.10;;;;;;5067109;27;21028;-48
2022/06/11 04:36:17;;;;;;;1.10;1.00;;;19.60;66.90;;;;;;5088223;27;20513;-48
2022/06/11 04:38:58;;;;;;;1.43;1.23;;;19.60;66.90;;;;;;5081313;27;20950;-48
2022/06/11 04:41:38;;;;;;;1.00;1.00;;;19.60;66.90;;;;;;5134950;27;1214120;-48
2022/06/11 04:44:20;;;;;;;1.40;1.30;;;19.60;66.90;;;;;;5070238;27;20629;-47
2022/06/11 04:47:01;;;;;;;1.00;1.00;;;19.60;67.00;;;;;;5087300;27;20663;-48
2022/06/11 04:49:42;;;;;;;1.20;1.10;;;19.60;67.00;;;;;;5049052;27;20623;-48
2022/06/11 04:52:24;;;;;;;1.40;1.30;;;19.60;67.00;;;;;;5088011;28;20584;-48
2022/06/11 04:55:06;;;;;;;2.10;1.10;;;19.60;67.30;;;;;;5070821;27;20558;-48
2022/06/11 04:57:47;;;;;;;1.40;1.30;;;19.60;66.90;;;;;;5139181;27;21317;-48
2022/06/11 05:00:30;;;;;;;1.00;0.90;;;19.50;66.80;;;;;;5105890;27;21114;-48
2022/06/11 05:03:11;;;;;;;1.20;1.10;;;19.60;66.90;;;;;;5094597;27;20594;-48
2022/06/11 05:05:52;;;;;;;1.10;1.00;;;19.60;66.80;;;;;;5073478;28;20523;-48
2022/06/11 05:08:34;;;;;;;1.10;1.00;;;19.60;66.80;;;;;;5069384;28;20739;-48
2022/06/11 05:11:15;;;;;;;0.90;0.80;;;19.60;66.80;;;;;;5067590;28;20521;-47
2022/06/11 05:13:54;;;;;;;1.80;1.17;;;19.60;66.80;;;;;;5090289;27;20585;-48
2022/06/11 05:16:35;;;;;;;1.20;1.10;;;19.60;66.80;;;;;;5073056;27;20555;-49
2022/06/11 05:19:19;;;;;;;1.10;1.00;;;19.60;66.80;;;;;;5071375;28;20551;-48
2022/06/11 05:21:59;;;;;;;1.27;1.17;;;19.60;66.80;;;;;;5127194;27;20521;-48
2022/06/11 05:24:40;;;;;;;1.17;1.03;;;19.60;66.80;;;;;;5097058;27;21068;-48
2022/06/11 05:27:25;;;;;;;1.10;1.00;;;19.60;66.80;;;;;;5071375;28;20521;-48
2022/06/11 05:30:15;;;;;;;1.43;1.00;;;19.60;66.70;;;;;;5125393;27;20524;-48
2022/06/11 05:32:55;;;;;;;1.27;1.17;;;19.60;66.70;;;;;;5078583;28;20588;-48
2022/06/11 05:35:36;;;;;;;1.67;0.90;;;19.60;66.70;;;;;;5087411;28;20526;-49
2022/06/11 05:38:22;;;;;;;1.17;1.07;;;19.60;66.60;;;;;;5083684;27;21147;-48
2022/06/11 05:41:03;;;;;;;1.63;1.00;;;19.60;66.60;;;;;;5128644;27;20523;-48
2022/06/11 05:43:45;;;;;;;1.63;1.10;;;19.60;66.50;;;;;;5064773;28;20562;-49
2022/06/11 05:46:27;;;;;;;1.00;0.90;;;19.60;66.50;;;;;;5085475;27;20949;-48
2022/06/11 05:49:15;;;;;;;1.40;1.10;;;19.60;66.50;;;;;;5078810;27;20600;-48
2022/06/11 05:51:59;;;;;;;1.17;1.07;;;19.60;66.50;;;;;;5128162;27;20573;-48
2022/06/11 05:54:41;;;;;;;1.30;1.17;;;19.60;66.60;;;;;;5064169;27;20548;-48
2022/06/11 05:57:24;;;;;;;1.20;1.10;;;19.60;66.60;;;;;;5128881;27;21046;-47
2022/06/11 06:00:08;;;;;;;1.93;1.10;;;19.60;66.70;;;;;;5084596;27;20584;-47
2022/06/11 06:02:55;;;;;;;1.27;1.17;;;19.60;66.50;;;;;;5099771;27;20539;-48
2022/06/11 06:05:38;;;;;;;1.47;0.90;;;19.60;66.60;;;;;;5087324;27;20528;-48
2022/06/11 06:08:19;;;;;;;0.90;0.90;;;19.60;66.60;;;;;;5088648;27;20544;-48
2022/06/11 06:10:59;;;;;;;1.10;1.00;;;19.60;66.50;;;;;;5135147;27;20521;-48
2022/06/11 06:13:48;;;;;;;1.20;1.10;;;19.60;66.50;;;;;;5067359;28;20597;-48
2022/06/11 06:16:30;;;;;;;1.00;1.00;;;19.60;66.40;;;;;;5085186;27;20544;-48
2022/06/11 06:19:11;;;;;;;1.13;1.07;;;19.60;66.40;;;;;;5087196;27;21077;-46
2022/06/11 06:21:51;;;;;;;1.20;1.03;;;19.60;66.30;;;;;;5134389;27;20617;-48
2022/06/11 06:24:31;;;;;;;1.17;1.07;;;19.60;66.40;;;;;;5071888;27;20614;-49
2022/06/11 06:27:12;;;;;;;1.30;1.03;;;19.60;66.40;;;;;;5092893;27;21038;-48
2022/06/11 06:29:54;;;;;;;1.73;1.30;;;19.60;66.40;;;;;;5125398;27;20583;-46
2022/06/11 06:32:36;;;;;;;1.00;0.90;;;19.60;66.40;;;;;;5128207;27;20525;-48
2022/06/11 06:35:17;;;;;;;0.93;0.93;;;19.60;66.30;;;;;;5087476;28;20519;-48
2022/06/11 06:37:58;;;;;;;1.40;1.13;;;19.60;66.30;;;;;;5071484;28;20560;-48
2022/06/11 06:40:40;;;;;;;1.60;1.30;;;19.60;66.30;;;;;;5087762;27;20759;-47
2022/06/11 06:43:25;;;;;;;1.10;1.00;;;19.60;67.60;;;;;;5084809;27;21122;-48
2022/06/11 06:46:06;;;;;;;1.63;1.33;;;19.60;66.30;;;;;;5073876;27;21058;-48
2022/06/11 06:48:47;;;;;;;1.10;1.00;;;19.60;66.30;;;;;;5052889;28;21263;-48
2022/06/11 06:51:29;;;;;;;1.33;1.23;;;19.60;66.30;;;;;;5100249;27;21028;-48
2022/06/11 06:54:10;;;;;;;0.90;0.80;;;19.60;67.60;;;;;;5081292;27;20606;-48
2022/06/11 06:56:51;;;;;;;1.00;0.90;;;19.60;66.30;;;;;;5107647;27;20550;-48
2022/06/11 06:59:33;;;;;;;1.00;0.90;;;19.60;66.30;;;;;;5070930;27;20657;-48
2022/06/11 07:02:14;;;;;;;1.00;1.00;;;19.60;66.20;;;;;;5127604;27;20552;-48
2022/06/11 07:04:55;;;;;;;1.10;1.00;;;19.60;66.20;;;;;;5106772;27;20998;-48
2022/06/11 07:07:35;;;;;;;1.60;1.20;;;19.60;66.20;;;;;;5085314;27;20527;-50
2022/06/11 07:10:19;;;;;;;1.30;1.20;;;19.60;66.20;;;;;;5085236;28;21050;-48
2022/06/11 07:13:00;;;;;;;1.40;1.30;;;19.60;66.20;;;;;;5083710;27;20547;-48
2022/06/11 07:15:43;;;;;;;1.33;1.00;;;19.60;66.20;;;;;;5085254;28;20527;-48
2022/06/11 07:18:26;;;;;;;1.20;1.10;;;19.60;66.20;;;;;;5070086;27;20561;-48
2022/06/11 07:21:11;;;;;;;1.33;1.23;;;19.60;66.30;;;;;;5096700;27;20522;-48
2022/06/11 07:23:54;;;;;;;1.27;1.17;;;19.60;66.20;;;;;;5093273;27;20623;-48
2022/06/11 07:26:39;;;;;;;1.50;1.30;;;19.60;66.10;;;;;;5087199;28;21034;-49
2022/06/11 07:29:24;;;;;;;0.70;0.70;;;19.60;66.10;;;;;;5039672;28;20543;-49
2022/06/11 07:32:13;;;;;;;1.17;1.07;;;19.60;66.30;;;;;;5115872;27;20529;-48
2022/06/11 07:34:53;;;;;;;1.37;1.27;;;19.60;66.20;;;;;;5121645;27;20940;-49
2022/06/11 07:37:36;;;;;;;1.80;0.93;;;19.60;66.20;;;;;;5122533;27;20533;-48
2022/06/11 07:40:24;;;;;;;1.17;1.00;;;19.60;66.10;;;;;;5086433;28;20617;-48
2022/06/11 07:43:06;;;;;;;1.27;1.17;;;19.60;66.10;;;;;;5123046;27;20573;-48
2022/06/11 07:45:49;;;;;;;1.20;0.87;;;19.70;66.30;;;;;;5085305;27;20531;-49
2022/06/11 07:48:30;;;;;;;1.00;0.90;;;19.70;66.20;;;;;;5086483;28;20547;-48
2022/06/11 07:51:11;;;;;;;1.60;1.50;;;19.70;66.10;;;;;;5087397;28;20516;-48
2022/06/11 07:53:51;;;;;;;1.30;1.20;;;19.70;66.20;;;;;;5113161;27;20546;-47
2022/06/11 07:56:31;;;;;;;1.40;1.10;;;19.70;66.20;;;;;;5093457;27;20664;-49
2022/06/11 07:59:12;;;;;;;1.17;1.08;;;19.70;66.20;;;;;;5124598;27;20574;-49
2022/06/11 08:01:54;;;;;;;1.33;1.23;;;19.70;66.20;;;;;;5087727;27;20576;-49
2022/06/11 08:04:35;;;;;;;1.10;1.07;;;19.70;66.10;;;;;;5091940;27;21065;-49
2022/06/11 08:07:15;;;;;;;1.20;1.10;;;19.70;66.00;;;;;;5114672;27;20538;-49
2022/06/11 08:09:57;;;;;;;1.10;1.00;;;19.70;66.00;;;;;;5113433;22;20621;-49
2022/06/11 08:12:38;;;;;;;1.13;0.90;;;19.70;66.10;;;;;;5085551;27;20551;-48
2022/06/11 08:15:25;;;;;;;1.00;0.90;;;19.80;66.00;;;;;;5126379;27;20530;-51
2022/06/11 08:18:06;;;;;;;1.53;0.90;;;19.80;66.00;;;;;;5120954;27;20554;-50
2022/06/11 08:20:49;;;;;;;1.33;1.23;;;19.80;65.90;;;;;;5128019;27;20574;-46
2022/06/11 08:23:30;;;;;;;1.33;1.23;;;19.80;65.90;;;;;;5084448;27;20544;-50
2022/06/11 08:26:11;;;;;;;1.33;1.00;;;19.80;66.00;;;;;;5125076;27;20566;-50
2022/06/11 08:28:53;;;;;;;1.50;1.20;;;19.80;65.90;;;;;;5111874;27;20986;-47
2022/06/11 08:31:35;;;;;;;1.27;1.17;;;19.80;66.00;;;;;;5072647;27;21012;-49
2022/06/11 08:34:16;;;;;;;1.20;1.10;;;19.80;65.90;;;;;;5110236;27;20605;-48
2022/06/11 08:36:57;;;;;;;1.27;1.17;;;19.80;65.80;;;;;;5129096;27;20510;-48
2022/06/11 08:39:39;;;;;;;1.10;1.00;;;19.80;65.80;;;;;;5077791;27;20551;-48
2022/06/11 08:42:32;;;;;;;0.80;0.80;;;19.80;65.90;;;;;;5129026;27;20926;-49
2022/06/11 08:45:19;;;;;;;1.30;1.20;;;19.80;65.90;;;;;;5086013;28;20581;-47
2022/06/11 08:48:06;;;;;;;1.40;1.10;;;19.80;66.00;;;;;;5066169;28;21029;-48
2022/06/11 08:51:02;;;;;;;1.53;1.10;;;19.80;66.00;;;;;;5127338;27;21075;-47
2022/06/11 08:53:44;;;;;;;1.30;1.20;;;19.80;66.00;;;;;;5091364;27;20569;-49
2022/06/11 08:56:33;;;;;;;1.23;1.13;;;19.80;66.00;;;;;;5088517;27;20535;-48
2022/06/11 08:59:33;;;;;;;0.80;0.80;;;19.80;66.00;;;;;;5039307;27;20669;-48
2022/06/11 09:02:39;;;;;;;1.10;1.00;;;19.80;65.90;;;;;;5086352;28;20582;-49
2022/06/11 09:05:33;;;;;;;1.20;1.10;;;19.80;65.90;;;;;;5175273;27;20864;-47
2022/06/11 09:08:36;;;;;;;2.50;1.50;;;19.80;65.90;;;;;;5074694;27;20674;-46
2022/06/11 09:11:31;;;;;;;0.97;0.87;;;19.80;66.00;;;;;;5127713;27;21053;-45
2022/06/11 09:14:56;;;;;;;1.00;0.90;;;19.80;66.00;;;;;;5079076;27;20536;-47
2022/06/11 09:18:13;;;;;;;1.47;1.37;;;19.80;66.00;;;;;;5103298;27;20550;-47
2022/06/11 09:21:04;;;;;;;0.93;0.93;;;19.80;66.00;;;;;;5149421;27;20623;-50
2022/06/11 09:24:14;;;;;;;1.57;1.47;;;19.80;66.10;;;;;;5115729;27;20555;-48
2022/06/11 09:27:00;;;;;;;0.90;0.90;;;19.80;66.10;;;;;;5088807;27;20553;-48
2022/06/11 09:29:54;;;;;;;1.30;1.10;;;19.80;66.10;;;;;;5066963;27;20554;-48
2022/06/11 09:32:43;;;;;;;1.30;1.20;;;19.80;66.10;;;;;;5138169;27;20584;-47
2022/06/11 09:35:32;;;;;;;1.30;1.20;;;19.80;66.10;;;;;;5112839;27;20526;-46
2022/06/11 09:38:20;;;;;;;1.10;1.00;;;19.80;66.10;;;;;;5114400;27;20583;-49
2022/06/11 09:41:11;;;;;;;1.57;1.07;;;19.80;66.10;;;;;;5128551;27;20547;-49
2022/06/11 09:44:01;;;;;;;1.20;1.10;;;19.80;66.20;;;;;;5114724;27;20559;-48
2022/06/11 09:46:48;;;;;;;1.00;0.90;;;19.80;66.20;;;;;;5128442;27;20544;-49
2022/06/11 09:49:40;;;;;;;1.30;1.20;;;19.80;66.20;;;;;;4991898;28;20572;-46
2022/06/11 09:52:30;;;;;;;1.40;1.20;;;19.80;66.30;;;;;;5086449;27;21066;-47
2022/06/11 09:55:27;;;;;;;1.30;1.20;;;19.80;66.30;;;;;;5129083;27;20562;-48
2022/06/11 09:58:18;;;;;;;1.47;1.20;;;19.80;66.20;;;;;;5050438;27;20549;-46
2022/06/11 10:01:17;;;;;;;1.33;1.23;;;19.80;66.30;;;;;;5085937;27;20883;-49
2022/06/11 10:04:05;;;;;;;1.30;1.20;;;19.80;66.20;;;;;;5095797;22;21036;-72
2022/06/11 10:06:52;;;;;;;1.10;1.00;;;19.80;66.30;;;;;;5128135;27;20546;-46
2022/06/11 10:09:41;;;;;;;1.40;1.30;;;19.80;67.50;;;;;;5071231;27;20632;-46
2022/06/11 10:12:26;;;;;;;1.10;1.00;;;19.80;66.30;;;;;;5087283;27;20543;-46
2022/06/11 10:15:16;;;;;;;1.33;1.23;;;19.90;66.30;;;;;;5125454;27;20564;-46
2022/06/11 10:18:02;;;;;;;1.57;1.47;;;19.90;66.40;;;;;;5082264;27;21124;-46
2022/06/11 10:20:47;;;;;;;2.47;1.03;;;19.90;66.30;;;;;;5087388;27;20573;-46
2022/06/11 10:23:35;;;;;;;1.10;1.00;;;19.90;66.40;;;;;;5109279;27;20601;-46
2022/06/11 10:26:22;;;;;;;1.50;1.20;;;19.90;66.30;;;;;;5073435;27;21089;-45
2022/06/11 10:29:11;;;;;;;2.20;1.50;;;19.90;66.40;;;;;;5047838;28;20543;-46
2022/06/11 10:31:56;;;;;;;1.70;1.20;;;19.90;66.40;;;;;;5087086;28;20629;-46
2022/06/11 10:34:43;;;;;;;1.40;1.30;;;19.90;66.40;;;;;;5126843;27;20602;-47
2022/06/11 10:37:31;;;;;;;1.23;1.13;;;19.90;66.40;;;;;;5128684;27;20508;-47
2022/06/11 10:40:22;;;;;;;2.33;1.60;;;19.90;66.40;;;;;;5083945;27;20593;-47
2022/06/11 10:43:11;;;;;;;1.33;1.23;;;19.90;66.30;;;;;;5077402;27;20565;-45
2022/06/11 10:45:52;;;;;;;1.10;1.00;;;19.90;66.40;;;;;;5087830;27;20907;-73
2022/06/11 10:48:37;;;;;;;1.63;1.53;;;19.90;66.40;;;;;;5060124;28;21100;-46
2022/06/11 10:51:25;;;;;;;1.40;1.30;;;19.90;66.50;;;;;;5082092;28;20657;-46
2022/06/11 10:54:15;;;;;;;1.00;1.00;;;19.90;66.40;;;;;;5034948;28;21066;-46
2022/06/11 10:56:59;;;;;;;1.27;1.17;;;20.00;66.60;;;;;;5121682;27;20588;-47
2022/06/11 10:59:44;;;;;;;0.90;0.90;;;19.90;66.40;;;;;;5060935;27;20572;-46
2022/06/11 11:02:30;;;;;;;1.87;1.60;;;20.00;66.70;;;;;;5087608;28;20551;-46
2022/06/11 11:05:13;;;;;;;1.53;1.43;;;20.00;66.60;;;;;;5148463;27;20528;-45
2022/06/11 11:07:58;;;;;;;1.73;1.43;;;20.00;66.70;;;;;;5000187;27;20575;-46
2022/06/11 11:10:47;;;;;;;1.37;1.27;;;20.00;66.60;;;;;;5087208;28;20578;-46
2022/06/11 11:13:35;;;;;;;1.37;1.27;;;20.00;66.60;;;;;;5102815;27;20550;-48
2022/06/11 11:16:22;;;;;;;1.53;1.43;;;20.00;66.60;;;;;;5126125;27;20960;-46
2022/06/11 11:19:12;;;;;;;1.73;1.37;;;20.00;66.50;;;;;;5109794;27;20680;-46
2022/06/11 11:21:56;;;;;;;1.40;1.30;;;20.00;66.60;;;;;;5086991;28;20532;-46
2022/06/11 11:24:42;;;;;;;1.50;1.40;;;20.00;66.60;;;;;;5093175;27;20843;-46
2022/06/11 11:27:24;;;;;;;1.17;1.07;;;20.00;66.60;;;;;;5087124;28;20524;-47
2022/06/11 11:30:29;;;;;;;1.47;1.37;;;20.00;66.60;;;;;;5090626;27;20532;-46
2022/06/11 11:33:22;;;;;;;1.63;1.53;;;20.00;66.60;;;;;;5067274;28;20900;-46
2022/06/11 11:36:18;;;;;;;1.77;1.60;;;20.10;66.70;;;;;;5110016;27;20547;-46
2022/06/11 11:39:22;;;;;;;1.87;1.77;;;20.10;66.70;;;;;;5046538;27;20609;-45
2022/06/11 11:42:13;;;;;;;1.63;1.53;;;20.10;66.80;;;;;;5088770;28;20511;-46
2022/06/11 11:44:57;;;;;;;1.40;1.30;;;20.10;66.70;;;;;;5079063;27;20562;-45
2022/06/11 11:47:40;;;;;;;1.77;1.50;;;20.10;66.80;;;;;;5125379;27;20614;-47
2022/06/11 11:50:26;;;;;;;1.30;1.20;;;20.10;66.80;;;;;;5128557;27;20545;-46
2022/06/11 11:53:23;;;;;;;1.60;1.50;;;20.10;66.80;;;;;;5057715;28;20590;-46
2022/06/11 11:56:06;;;;;;;1.40;1.30;;;20.10;66.90;;;;;;5085670;28;20601;-46
2022/06/11 11:58:53;;;;;;;1.17;1.07;;;20.10;66.80;;;;;;5086027;27;20533;-46
2022/06/11 12:01:36;;;;;;;1.50;1.40;;;20.10;66.80;;;;;;5067054;28;20544;-46
2022/06/11 12:04:21;;;;;;;1.83;1.47;;;20.10;66.90;;;;;;5077952;27;20537;-47
2022/06/11 12:07:06;;;;;;;1.73;1.43;;;20.10;66.80;;;;;;5128034;27;20571;-47
2022/06/11 12:09:53;;;;;;;1.33;1.23;;;20.10;66.80;;;;;;5087698;27;20544;-46
2022/06/11 12:12:37;;;;;;;1.40;1.30;;;20.10;66.90;;;;;;5023250;28;20550;-47
2022/06/11 12:15:21;;;;;;;1.50;1.40;;;20.10;66.80;;;;;;5084783;28;20625;-46
2022/06/11 12:18:07;;;;;;;1.63;1.53;;;20.10;66.80;;;;;;5079696;27;20646;-45
2022/06/11 12:20:53;;;;;;;2.03;1.83;;;20.10;66.90;;;;;;5107694;27;20576;-46
2022/06/11 12:23:39;;;;;;;1.77;1.67;;;20.20;66.90;;;;;;5105317;27;20966;-48
2022/06/11 12:26:22;;;;;;;1.60;1.50;;;20.20;66.90;;;;;;5084832;28;21049;-46
2022/06/11 12:29:12;;;;;;;1.50;1.40;;;20.20;67.00;;;;;;5101746;27;20540;-46
2022/06/11 12:31:55;;;;;;;1.67;1.50;;;20.20;67.00;;;;;;5088967;27;20648;-46
2022/06/11 12:34:37;;;;;;;1.53;1.43;;;20.20;67.00;;;;;;5059960;27;20558;-46
2022/06/11 12:37:37;;;;;;;1.53;1.43;;;20.20;67.00;;;;;;5086413;28;20516;-45
2022/06/11 12:40:26;;;;;;;2.07;1.97;;;20.20;67.00;;;;;;5127044;27;20529;-47
2022/06/11 12:43:35;;;;;;;1.57;1.47;;;20.20;67.00;;;;;;5111983;27;20888;-45
2022/06/11 12:46:27;;;;;;;1.73;1.50;;;20.20;67.00;;;;;;5113974;27;20592;-46
2022/06/11 12:49:19;;;;;;;1.60;1.43;;;20.20;67.00;;;;;;5081570;27;20562;-46
2022/06/11 12:52:11;;;;;;;1.27;1.17;;;20.30;67.30;;;;;;5077842;28;20949;-46
2022/06/11 12:55:17;;;;;;;1.40;1.30;;;20.30;67.10;;;;;;5029535;27;20562;-46
2022/06/11 12:58:06;;;;;;;1.93;1.37;;;20.30;67.00;;;;;;5137503;27;20524;-46
2022/06/11 13:00:51;;;;;;;1.83;1.50;;;20.30;67.10;;;;;;5083680;28;20625;-46
2022/06/11 13:04:06;;;;;;;1.30;1.20;;;20.30;67.10;;;;;;5097478;27;20551;-47
2022/06/11 13:07:07;;;;;;;1.53;1.40;;;20.30;67.10;;;;;;5086932;28;21042;-46
2022/06/11 13:10:03;;;;;;;1.33;1.23;;;20.30;67.00;;;;;;5068299;27;20679;-46
2022/06/11 13:13:01;;;;;;;1.80;1.70;;;20.30;68.40;;;;;;5118327;27;21111;-45
2022/06/11 13:15:52;;;;;;;1.80;1.70;;;20.30;67.10;;;;;;5125287;27;20602;-46
2022/06/11 13:18:53;;;;;;;1.67;1.57;;;20.30;67.10;;;;;;5060991;27;20606;-46
2022/06/11 13:21:39;;;;;;;1.47;1.37;;;20.30;67.20;;;;;;5128377;27;20570;-46
2022/06/11 13:24:40;;;;;;;1.57;1.40;;;20.30;67.10;;;;;;5039019;28;20552;-47
2022/06/11 13:27:36;;;;;;;1.77;1.40;;;20.40;67.20;;;;;;5092177;27;21079;-46
2022/06/11 13:30:28;;;;;;;1.30;1.20;;;20.40;67.20;;;;;;5147516;27;20519;-45
2022/06/11 13:33:28;;;;;;;1.67;1.57;;;20.40;67.20;;;;;;5082030;27;20553;-46
2022/06/11 13:36:16;;;;;;;1.67;1.57;;;20.40;67.10;;;;;;5075831;28;20520;-45
2022/06/11 13:39:10;;;;;;;1.40;1.30;;;20.40;67.20;;;;;;5072112;27;21115;-46
2022/06/11 13:42:05;;;;;;;1.53;1.40;;;20.40;67.10;;;;;;5087299;28;20523;-45
2022/06/11 13:44:59;;;;;;;3.20;1.50;;;20.40;67.10;;;;;;5105381;27;20665;-46
2022/06/11 13:47:58;;;;;;;1.50;1.33;;;20.40;67.20;;;;;;5091057;27;20526;-46
2022/06/11 13:50:50;;;;;;;1.40;1.30;;;20.40;67.20;;;;;;5094665;27;20652;-45
2022/06/11 13:56:40;;;;;;;1.50;1.40;;;20.40;67.10;;;;;;5085087;28;20551;-46
2022/06/11 13:59:53;;;;;;;1.50;1.40;;;20.50;67.20;;;;;;5039966;28;20547;-47
2022/06/11 14:03:21;;;;;;;1.73;1.63;;;20.50;67.10;;;;;;5106237;27;20519;-46
2022/06/11 14:06:05;;;;;;;1.80;1.40;;;20.50;67.10;;;;;;5086897;28;20581;-46
2022/06/11 14:08:50;;;;;;;2.83;1.30;;;20.50;67.20;;;;;;5073066;27;20546;-46
2022/06/11 14:11:46;;;;;;;1.43;1.23;;;20.50;67.10;;;;;;5127384;27;20525;-46
2022/06/11 14:14:37;;;;;;;1.70;1.60;;;20.50;67.10;;;;;;5078025;27;20603;-47
2022/06/11 14:17:46;;;;;;;2.17;1.50;;;20.50;67.10;;;;;;5133847;27;20566;-47
2022/06/11 14:20:46;;;;;;;1.30;1.20;;;20.50;67.10;;;;;;5128045;27;20525;-47
2022/06/11 14:23:51;;;;;;;4.03;1.50;;;20.50;67.10;;;;;;5083943;27;20564;-46
2022/06/11 14:26:56;;;;;;;2.33;1.53;;;20.50;67.00;;;;;;5088577;28;20586;-46
2022/06/11 14:29:37;;;;;;;2.23;1.33;;;20.60;67.10;;;;;;5092735;27;20813;-46
2022/06/11 14:32:30;;;;;;;1.30;1.20;;;20.60;67.20;;;;;;5113262;27;20573;-47
2022/06/11 14:35:34;;;;;;;1.43;1.33;;;20.60;67.10;;;;;;5087385;28;20529;-47